sensor_id;sensor_type;location;lat;lon;timestamp;temperature;humidity
46440;DHT22;32138;50.966;6.968;2024-03-08T00:00:26;6.80;90.80
46440;DHT22;32138;50.966;6.968;2024-03-08T00:01:56;6.70;90.90
46440;DHT22;32138;50.966;6.968;2024-03-08T00:03:27;6.90;90.80
46440;DHT22;32138;50.966;6.968;2024-03-08T00:04:59;6.90;90.70
46440;DHT22;32138;50.966;6.968;2024-03-08T00:06:30;7.00;90.60
46440;DHT22;32138;50.966;6.968;2024-03-08T00:08:00;6.90;90.70
46440;DHT22;32138;50.966;6.968;2024-03-08T00:09:31;6.90;90.80
46440;DHT22;32138;50.966;6.968;2024-03-08T00:11:02;7.00;90.80
46440;DHT22;32138;50.966;6.968;2024-03-08T00:12:33;7.00;90.60
46440;DHT22;32138;50.966;6.968;2024-03-08T00:14:04;7.00;90.60
46440;DHT22;32138;50.966;6.968;2024-03-08T00:15:37;6.90;90.70
46440;DHT22;32138;50.966;6.968;2024-03-08T00:17:07;6.90;90.70
46440;DHT22;32138;50.966;6.968;2024-03-08T00:18:39;6.90;90.60
46440;DHT22;32138;50.966;6.968;2024-03-08T00:20:10;6.80;90.80
46440;DHT22;32138;50.966;6.968;2024-03-08T00:21:41;6.70;90.90
46440;DHT22;32138;50.966;6.968;2024-03-08T00:23:12;6.80;90.90
46440;DHT22;32138;50.966;6.968;2024-03-08T00:24:43;6.70;90.90
46440;DHT22;32138;50.966;6.968;2024-03-08T00:26:14;6.90;91.20
46440;DHT22;32138;50.966;6.968;2024-03-08T00:27:44;6.90;90.70
46440;DHT22;32138;50.966;6.968;2024-03-08T00:29:15;6.80;91.00
46440;DHT22;32138;50.966;6.968;2024-03-08T00:30:46;6.90;91.10
46440;DHT22;32138;50.966;6.968;2024-03-08T00:32:17;6.90;90.80
46440;DHT22;32138;50.966;6.968;2024-03-08T00:33:47;6.80;90.70
46440;DHT22;32138;50.966;6.968;2024-03-08T00:35:18;6.90;90.70
46440;DHT22;32138;50.966;6.968;2024-03-08T00:36:49;6.60;90.90
46440;DHT22;32138;50.966;6.968;2024-03-08T00:38:20;6.60;90.90
46440;DHT22;32138;50.966;6.968;2024-03-08T00:39:51;6.70;90.80
46440;DHT22;32138;50.966;6.968;2024-03-08T00:41:22;6.70;90.80
46440;DHT22;32138;50.966;6.968;2024-03-08T00:42:53;6.70;90.70
46440;DHT22;32138;50.966;6.968;2024-03-08T00:44:24;6.80;90.80
46440;DHT22;32138;50.966;6.968;2024-03-08T00:45:55;6.80;90.80
46440;DHT22;32138;50.966;6.968;2024-03-08T00:47:26;6.70;90.80
46440;DHT22;32138;50.966;6.968;2024-03-08T00:48:57;6.80;90.80
46440;DHT22;32138;50.966;6.968;2024-03-08T00:50:28;6.80;90.70
46440;DHT22;32138;50.966;6.968;2024-03-08T00:51:58;6.70;90.50
46440;DHT22;32138;50.966;6.968;2024-03-08T00:53:29;6.60;90.80
46440;DHT22;32138;50.966;6.968;2024-03-08T00:55:00;6.70;90.90
46440;DHT22;32138;50.966;6.968;2024-03-08T00:56:31;6.70;90.70
46440;DHT22;32138;50.966;6.968;2024-03-08T00:58:01;6.70;90.70
46440;DHT22;32138;50.966;6.968;2024-03-08T00:59:32;6.70;90.60
46440;DHT22;32138;50.966;6.968;2024-03-08T01:01:03;6.60;90.70
46440;DHT22;32138;50.966;6.968;2024-03-08T01:02:35;6.70;90.60
46440;DHT22;32138;50.966;6.968;2024-03-08T01:04:06;6.30;90.80
46440;DHT22;32138;50.966;6.968;2024-03-08T01:05:38;6.40;90.90
46440;DHT22;32138;50.966;6.968;2024-03-08T01:07:09;6.40;90.90
46440;DHT22;32138;50.966;6.968;2024-03-08T01:08:39;6.30;91.20
46440;DHT22;32138;50.966;6.968;2024-03-08T01:10:12;6.50;91.10
46440;DHT22;32138;50.966;6.968;2024-03-08T01:11:43;6.60;90.90
46440;DHT22;32138;50.966;6.968;2024-03-08T01:13:14;6.40;91.00
46440;DHT22;32138;50.966;6.968;2024-03-08T01:14:44;6.30;91.30
46440;DHT22;32138;50.966;6.968;2024-03-08T01:16:15;6.50;91.30
46440;DHT22;32138;50.966;6.968;2024-03-08T01:17:47;6.60;91.00
46440;DHT22;32138;50.966;6.968;2024-03-08T01:19:18;6.50;91.00
46440;DHT22;32138;50.966;6.968;2024-03-08T01:20:48;6.50;90.90
46440;DHT22;32138;50.966;6.968;2024-03-08T01:22:19;6.50;91.10
46440;DHT22;32138;50.966;6.968;2024-03-08T01:23:50;6.60;90.90
46440;DHT22;32138;50.966;6.968;2024-03-08T01:25:21;6.50;91.00
46440;DHT22;32138;50.966;6.968;2024-03-08T01:26:53;6.60;91.00
46440;DHT22;32138;50.966;6.968;2024-03-08T01:28:24;6.40;91.20
46440;DHT22;32138;50.966;6.968;2024-03-08T01:29:55;6.30;91.20
46440;DHT22;32138;50.966;6.968;2024-03-08T01:31:26;6.30;91.30
46440;DHT22;32138;50.966;6.968;2024-03-08T01:32:59;6.40;91.30
46440;DHT22;32138;50.966;6.968;2024-03-08T01:34:30;6.40;91.20
46440;DHT22;32138;50.966;6.968;2024-03-08T01:36:00;6.30;91.40
46440;DHT22;32138;50.966;6.968;2024-03-08T01:37:31;6.40;91.40
46440;DHT22;32138;50.966;6.968;2024-03-08T01:39:02;6.50;91.10
46440;DHT22;32138;50.966;6.968;2024-03-08T01:40:38;6.50;91.10
46440;DHT22;32138;50.966;6.968;2024-03-08T01:42:11;6.60;91.10
46440;DHT22;32138;50.966;6.968;2024-03-08T01:43:45;6.50;91.20
46440;DHT22;32138;50.966;6.968;2024-03-08T01:45:16;6.60;91.10
46440;DHT22;32138;50.966;6.968;2024-03-08T01:46:47;6.60;91.00
46440;DHT22;32138;50.966;6.968;2024-03-08T01:48:20;6.50;91.20
46440;DHT22;32138;50.966;6.968;2024-03-08T01:49:54;6.60;91.10
46440;DHT22;32138;50.966;6.968;2024-03-08T01:51:25;6.60;91.10
46440;DHT22;32138;50.966;6.968;2024-03-08T01:52:55;6.50;91.20
46440;DHT22;32138;50.966;6.968;2024-03-08T01:54:30;6.50;91.20
46440;DHT22;32138;50.966;6.968;2024-03-08T01:56:02;6.50;91.30
46440;DHT22;32138;50.966;6.968;2024-03-08T01:57:33;6.40;91.20
46440;DHT22;32138;50.966;6.968;2024-03-08T01:59:04;6.20;91.40
46440;DHT22;32138;50.966;6.968;2024-03-08T02:00:39;6.20;91.60
46440;DHT22;32138;50.966;6.968;2024-03-08T02:02:11;6.40;91.50
46440;DHT22;32138;50.966;6.968;2024-03-08T02:03:45;6.40;91.60
46440;DHT22;32138;50.966;6.968;2024-03-08T02:05:16;6.50;91.40
46440;DHT22;32138;50.966;6.968;2024-03-08T02:06:48;6.20;91.50
46440;DHT22;32138;50.966;6.968;2024-03-08T02:08:19;6.10;91.80
46440;DHT22;32138;50.966;6.968;2024-03-08T02:09:53;6.10;91.80
46440;DHT22;32138;50.966;6.968;2024-03-08T02:11:24;6.00;92.00
46440;DHT22;32138;50.966;6.968;2024-03-08T02:12:55;6.10;91.90
46440;DHT22;32138;50.966;6.968;2024-03-08T02:14:26;6.20;91.80
46440;DHT22;32138;50.966;6.968;2024-03-08T02:15:58;6.20;91.70
46440;DHT22;32138;50.966;6.968;2024-03-08T02:17:30;6.20;91.70
46440;DHT22;32138;50.966;6.968;2024-03-08T02:19:00;6.00;92.10
46440;DHT22;32138;50.966;6.968;2024-03-08T02:20:31;6.20;92.00
46440;DHT22;32138;50.966;6.968;2024-03-08T02:22:02;6.00;92.10
46440;DHT22;32138;50.966;6.968;2024-03-08T02:23:34;6.00;92.20
46440;DHT22;32138;50.966;6.968;2024-03-08T02:25:06;6.00;92.00
46440;DHT22;32138;50.966;6.968;2024-03-08T02:26:37;5.90;92.40
46440;DHT22;32138;50.966;6.968;2024-03-08T02:28:11;6.00;92.20
46440;DHT22;32138;50.966;6.968;2024-03-08T02:29:43;6.10;92.20
46440;DHT22;32138;50.966;6.968;2024-03-08T02:31:14;6.10;92.10
46440;DHT22;32138;50.966;6.968;2024-03-08T02:32:45;6.10;92.10
46440;DHT22;32138;50.966;6.968;2024-03-08T02:34:16;6.20;92.10
46440;DHT22;32138;50.966;6.968;2024-03-08T02:35:48;6.20;92.00
46440;DHT22;32138;50.966;6.968;2024-03-08T02:37:19;6.10;92.00
46440;DHT22;32138;50.966;6.968;2024-03-08T02:38:49;6.20;92.10
46440;DHT22;32138;50.966;6.968;2024-03-08T02:40:20;6.20;92.00
46440;DHT22;32138;50.966;6.968;2024-03-08T02:41:52;6.20;92.00
46440;DHT22;32138;50.966;6.968;2024-03-08T02:43:23;6.20;91.90
46440;DHT22;32138;50.966;6.968;2024-03-08T02:44:54;6.20;92.10
46440;DHT22;32138;50.966;6.968;2024-03-08T02:46:25;6.30;92.00
46440;DHT22;32138;50.966;6.968;2024-03-08T02:47:56;6.30;92.00
46440;DHT22;32138;50.966;6.968;2024-03-08T02:49:27;6.20;91.90
46440;DHT22;32138;50.966;6.968;2024-03-08T02:50:57;6.20;92.00
46440;DHT22;32138;50.966;6.968;2024-03-08T02:52:28;6.20;91.80
46440;DHT22;32138;50.966;6.968;2024-03-08T02:53:59;6.20;91.90
46440;DHT22;32138;50.966;6.968;2024-03-08T02:55:30;6.20;91.90
46440;DHT22;32138;50.966;6.968;2024-03-08T02:57:01;6.20;92.00
46440;DHT22;32138;50.966;6.968;2024-03-08T02:58:31;6.30;91.90
46440;DHT22;32138;50.966;6.968;2024-03-08T03:00:02;6.10;92.10
46440;DHT22;32138;50.966;6.968;2024-03-08T03:01:39;6.20;92.00
46440;DHT22;32138;50.966;6.968;2024-03-08T03:03:11;6.20;92.00
46440;DHT22;32138;50.966;6.968;2024-03-08T03:04:42;6.30;92.00
46440;DHT22;32138;50.966;6.968;2024-03-08T03:06:13;6.20;92.00
46440;DHT22;32138;50.966;6.968;2024-03-08T03:07:44;6.20;92.00
46440;DHT22;32138;50.966;6.968;2024-03-08T03:09:15;6.20;92.10
46440;DHT22;32138;50.966;6.968;2024-03-08T03:10:47;6.20;91.90
46440;DHT22;32138;50.966;6.968;2024-03-08T03:12:18;6.10;92.00
46440;DHT22;32138;50.966;6.968;2024-03-08T03:13:49;5.90;92.20
46440;DHT22;32138;50.966;6.968;2024-03-08T03:15:20;5.80;92.30
46440;DHT22;32138;50.966;6.968;2024-03-08T03:16:51;5.80;92.30
46440;DHT22;32138;50.966;6.968;2024-03-08T03:18:21;5.80;92.50
46440;DHT22;32138;50.966;6.968;2024-03-08T03:19:54;5.90;92.30
46440;DHT22;32138;50.966;6.968;2024-03-08T03:21:28;5.80;92.50
46440;DHT22;32138;50.966;6.968;2024-03-08T03:23:02;5.90;92.30
46440;DHT22;32138;50.966;6.968;2024-03-08T03:24:33;5.80;92.30
46440;DHT22;32138;50.966;6.968;2024-03-08T03:26:04;5.60;92.80
46440;DHT22;32138;50.966;6.968;2024-03-08T03:27:37;5.60;92.70
46440;DHT22;32138;50.966;6.968;2024-03-08T03:29:09;5.60;92.90
46440;DHT22;32138;50.966;6.968;2024-03-08T03:30:41;5.70;92.60
46440;DHT22;32138;50.966;6.968;2024-03-08T03:32:12;6.00;92.30
46440;DHT22;32138;50.966;6.968;2024-03-08T03:33:43;6.00;92.20
46440;DHT22;32138;50.966;6.968;2024-03-08T03:35:14;5.80;92.40
46440;DHT22;32138;50.966;6.968;2024-03-08T03:36:45;5.70;92.70
46440;DHT22;32138;50.966;6.968;2024-03-08T03:38:17;5.60;92.90
46440;DHT22;32138;50.966;6.968;2024-03-08T03:39:50;5.60;92.90
46440;DHT22;32138;50.966;6.968;2024-03-08T03:41:23;5.60;92.90
46440;DHT22;32138;50.966;6.968;2024-03-08T03:42:54;5.50;93.10
46440;DHT22;32138;50.966;6.968;2024-03-08T03:44:25;5.40;93.30
46440;DHT22;32138;50.966;6.968;2024-03-08T03:45:55;5.40;93.40
46440;DHT22;32138;50.966;6.968;2024-03-08T03:47:26;5.60;93.10
46440;DHT22;32138;50.966;6.968;2024-03-08T03:48:57;5.60;93.00
46440;DHT22;32138;50.966;6.968;2024-03-08T03:50:28;5.60;93.00
46440;DHT22;32138;50.966;6.968;2024-03-08T03:51:58;5.60;92.90
46440;DHT22;32138;50.966;6.968;2024-03-08T03:53:29;5.40;93.40
46440;DHT22;32138;50.966;6.968;2024-03-08T03:55:00;5.40;93.40
46440;DHT22;32138;50.966;6.968;2024-03-08T03:56:31;5.20;93.70
46440;DHT22;32138;50.966;6.968;2024-03-08T03:58:02;5.50;93.40
46440;DHT22;32138;50.966;6.968;2024-03-08T03:59:33;5.70;93.00
46440;DHT22;32138;50.966;6.968;2024-03-08T04:01:07;5.80;92.80
46440;DHT22;32138;50.966;6.968;2024-03-08T04:02:38;5.80;92.70
46440;DHT22;32138;50.966;6.968;2024-03-08T04:04:09;5.90;92.50
46440;DHT22;32138;50.966;6.968;2024-03-08T04:05:40;5.50;93.00
46440;DHT22;32138;50.966;6.968;2024-03-08T04:07:11;5.70;93.00
46440;DHT22;32138;50.966;6.968;2024-03-08T04:08:41;5.80;92.70
46440;DHT22;32138;50.966;6.968;2024-03-08T04:10:12;5.90;92.60
46440;DHT22;32138;50.966;6.968;2024-03-08T04:11:43;6.00;92.40
46440;DHT22;32138;50.966;6.968;2024-03-08T04:13:14;5.80;92.70
46440;DHT22;32138;50.966;6.968;2024-03-08T04:14:46;5.80;92.60
46440;DHT22;32138;50.966;6.968;2024-03-08T04:16:16;5.90;92.40
46440;DHT22;32138;50.966;6.968;2024-03-08T04:17:49;5.70;93.00
46440;DHT22;32138;50.966;6.968;2024-03-08T04:19:20;5.80;92.60
46440;DHT22;32138;50.966;6.968;2024-03-08T04:20:50;5.60;92.70
46440;DHT22;32138;50.966;6.968;2024-03-08T04:22:21;5.40;93.10
46440;DHT22;32138;50.966;6.968;2024-03-08T04:23:52;5.60;93.00
46440;DHT22;32138;50.966;6.968;2024-03-08T04:25:23;5.60;92.90
46440;DHT22;32138;50.966;6.968;2024-03-08T04:26:54;5.80;92.80
46440;DHT22;32138;50.966;6.968;2024-03-08T04:28:25;5.80;92.90
46440;DHT22;32138;50.966;6.968;2024-03-08T04:29:56;5.80;92.80
46440;DHT22;32138;50.966;6.968;2024-03-08T04:31:27;5.90;92.70
46440;DHT22;32138;50.966;6.968;2024-03-08T04:32:58;5.80;92.70
46440;DHT22;32138;50.966;6.968;2024-03-08T04:34:29;5.80;92.60
46440;DHT22;32138;50.966;6.968;2024-03-08T04:36:00;5.40;93.30
46440;DHT22;32138;50.966;6.968;2024-03-08T04:37:30;5.50;93.00
46440;DHT22;32138;50.966;6.968;2024-03-08T04:39:01;5.20;93.40
46440;DHT22;32138;50.966;6.968;2024-03-08T04:40:32;5.10;93.90
46440;DHT22;32138;50.966;6.968;2024-03-08T04:42:05;5.20;93.70
46440;DHT22;32138;50.966;6.968;2024-03-08T04:43:40;5.20;93.80
46440;DHT22;32138;50.966;6.968;2024-03-08T04:45:11;5.10;94.00
46440;DHT22;32138;50.966;6.968;2024-03-08T04:46:42;5.30;93.70
46440;DHT22;32138;50.966;6.968;2024-03-08T04:48:12;5.20;93.80
46440;DHT22;32138;50.966;6.968;2024-03-08T04:49:43;5.40;93.60
46440;DHT22;32138;50.966;6.968;2024-03-08T04:51:14;5.40;93.50
46440;DHT22;32138;50.966;6.968;2024-03-08T04:52:45;5.20;93.90
46440;DHT22;32138;50.966;6.968;2024-03-08T04:54:16;5.10;94.20
46440;DHT22;32138;50.966;6.968;2024-03-08T04:55:47;5.20;93.90
46440;DHT22;32138;50.966;6.968;2024-03-08T04:57:18;5.30;93.70
46440;DHT22;32138;50.966;6.968;2024-03-08T04:58:48;5.20;93.80
46440;DHT22;32138;50.966;6.968;2024-03-08T05:00:19;5.30;93.70
46440;DHT22;32138;50.966;6.968;2024-03-08T05:01:51;5.40;93.50
46440;DHT22;32138;50.966;6.968;2024-03-08T05:03:21;5.00;94.20
46440;DHT22;32138;50.966;6.968;2024-03-08T05:04:52;4.70;94.70
46440;DHT22;32138;50.966;6.968;2024-03-08T05:06:23;5.00;94.50
46440;DHT22;32138;50.966;6.968;2024-03-08T05:07:54;5.10;94.30
46440;DHT22;32138;50.966;6.968;2024-03-08T05:09:24;5.30;94.00
46440;DHT22;32138;50.966;6.968;2024-03-08T05:10:55;5.20;94.00
46440;DHT22;32138;50.966;6.968;2024-03-08T05:12:26;5.10;94.10
46440;DHT22;32138;50.966;6.968;2024-03-08T05:13:57;4.90;94.50
46440;DHT22;32138;50.966;6.968;2024-03-08T05:15:29;5.10;94.50
46440;DHT22;32138;50.966;6.968;2024-03-08T05:17:00;5.10;94.40
46440;DHT22;32138;50.966;6.968;2024-03-08T05:18:31;5.30;94.00
46440;DHT22;32138;50.966;6.968;2024-03-08T05:20:02;5.40;93.80
46440;DHT22;32138;50.966;6.968;2024-03-08T05:21:34;5.50;93.70
46440;DHT22;32138;50.966;6.968;2024-03-08T05:23:05;5.40;93.70
46440;DHT22;32138;50.966;6.968;2024-03-08T05:24:35;5.50;93.70
46440;DHT22;32138;50.966;6.968;2024-03-08T05:26:06;5.60;93.50
46440;DHT22;32138;50.966;6.968;2024-03-08T05:27:37;5.60;93.50
46440;DHT22;32138;50.966;6.968;2024-03-08T05:29:08;5.50;93.50
46440;DHT22;32138;50.966;6.968;2024-03-08T05:30:39;5.60;93.50
46440;DHT22;32138;50.966;6.968;2024-03-08T05:32:10;5.30;93.80
46440;DHT22;32138;50.966;6.968;2024-03-08T05:33:40;5.20;94.30
46440;DHT22;32138;50.966;6.968;2024-03-08T05:35:13;5.40;93.90
46440;DHT22;32138;50.966;6.968;2024-03-08T05:36:46;5.40;93.90
46440;DHT22;32138;50.966;6.968;2024-03-08T05:38:17;5.20;94.30
46440;DHT22;32138;50.966;6.968;2024-03-08T05:39:48;5.30;94.10
46440;DHT22;32138;50.966;6.968;2024-03-08T05:41:18;5.40;94.00
46440;DHT22;32138;50.966;6.968;2024-03-08T05:42:50;5.50;93.90
46440;DHT22;32138;50.966;6.968;2024-03-08T05:44:21;5.40;94.10
46440;DHT22;32138;50.966;6.968;2024-03-08T05:45:51;5.10;94.50
46440;DHT22;32138;50.966;6.968;2024-03-08T05:47:22;5.10;94.70
46440;DHT22;32138;50.966;6.968;2024-03-08T05:48:53;5.10;94.80
46440;DHT22;32138;50.966;6.968;2024-03-08T05:50:25;5.00;94.90
46440;DHT22;32138;50.966;6.968;2024-03-08T05:51:55;5.00;94.90
46440;DHT22;32138;50.966;6.968;2024-03-08T05:53:26;4.80;94.90
46440;DHT22;32138;50.966;6.968;2024-03-08T05:54:57;4.90;95.00
46440;DHT22;32138;50.966;6.968;2024-03-08T05:56:30;5.00;94.80
46440;DHT22;32138;50.966;6.968;2024-03-08T05:58:04;5.40;94.30
46440;DHT22;32138;50.966;6.968;2024-03-08T05:59:38;5.50;94.00
46440;DHT22;32138;50.966;6.968;2024-03-08T06:01:08;5.50;94.00
46440;DHT22;32138;50.966;6.968;2024-03-08T06:02:43;5.40;94.30
46440;DHT22;32138;50.966;6.968;2024-03-08T06:04:13;5.20;94.60
46440;DHT22;32138;50.966;6.968;2024-03-08T06:05:44;5.10;94.80
46440;DHT22;32138;50.966;6.968;2024-03-08T06:07:15;5.00;94.70
46440;DHT22;32138;50.966;6.968;2024-03-08T06:08:48;5.20;94.60
46440;DHT22;32138;50.966;6.968;2024-03-08T06:10:19;5.40;94.50
46440;DHT22;32138;50.966;6.968;2024-03-08T06:11:53;5.30;94.40
46440;DHT22;32138;50.966;6.968;2024-03-08T06:13:24;5.30;94.50
46440;DHT22;32138;50.966;6.968;2024-03-08T06:14:55;5.00;94.70
46440;DHT22;32138;50.966;6.968;2024-03-08T06:16:26;4.90;95.20
46440;DHT22;32138;50.966;6.968;2024-03-08T06:17:59;5.10;94.70
46440;DHT22;32138;50.966;6.968;2024-03-08T06:19:30;5.00;94.90
46440;DHT22;32138;50.966;6.968;2024-03-08T06:21:00;5.00;95.10
46440;DHT22;32138;50.966;6.968;2024-03-08T06:22:32;5.20;94.90
46440;DHT22;32138;50.966;6.968;2024-03-08T06:24:03;5.30;94.70
46440;DHT22;32138;50.966;6.968;2024-03-08T06:25:33;5.20;94.70
46440;DHT22;32138;50.966;6.968;2024-03-08T06:27:05;5.10;95.10
46440;DHT22;32138;50.966;6.968;2024-03-08T06:28:36;5.20;94.90
46440;DHT22;32138;50.966;6.968;2024-03-08T06:30:07;5.40;94.50
46440;DHT22;32138;50.966;6.968;2024-03-08T06:31:39;5.30;94.60
46440;DHT22;32138;50.966;6.968;2024-03-08T06:33:10;5.00;95.10
46440;DHT22;32138;50.966;6.968;2024-03-08T06:34:41;5.10;95.10
46440;DHT22;32138;50.966;6.968;2024-03-08T06:36:12;5.20;95.20
46440;DHT22;32138;50.966;6.968;2024-03-08T06:37:43;5.20;94.90
46440;DHT22;32138;50.966;6.968;2024-03-08T06:39:14;5.20;94.90
46440;DHT22;32138;50.966;6.968;2024-03-08T06:40:45;5.30;94.70
46440;DHT22;32138;50.966;6.968;2024-03-08T06:42:18;5.40;94.70
46440;DHT22;32138;50.966;6.968;2024-03-08T06:43:49;5.50;94.60
46440;DHT22;32138;50.966;6.968;2024-03-08T06:45:22;5.50;94.60
46440;DHT22;32138;50.966;6.968;2024-03-08T06:46:53;5.50;94.50
46440;DHT22;32138;50.966;6.968;2024-03-08T06:48:24;5.60;94.50
46440;DHT22;32138;50.966;6.968;2024-03-08T06:49:55;5.70;94.40
46440;DHT22;32138;50.966;6.968;2024-03-08T06:51:26;5.70;94.40
46440;DHT22;32138;50.966;6.968;2024-03-08T06:52:56;5.60;94.70
46440;DHT22;32138;50.966;6.968;2024-03-08T06:54:27;5.60;94.50
46440;DHT22;32138;50.966;6.968;2024-03-08T06:55:58;5.60;94.40
46440;DHT22;32138;50.966;6.968;2024-03-08T06:57:29;5.60;94.50
46440;DHT22;32138;50.966;6.968;2024-03-08T06:59:00;5.70;94.40
46440;DHT22;32138;50.966;6.968;2024-03-08T07:00:33;5.70;94.50
46440;DHT22;32138;50.966;6.968;2024-03-08T07:02:04;5.90;94.40
46440;DHT22;32138;50.966;6.968;2024-03-08T07:03:35;5.90;94.30
46440;DHT22;32138;50.966;6.968;2024-03-08T07:05:06;6.00;94.20
46440;DHT22;32138;50.966;6.968;2024-03-08T07:06:40;6.00;93.90
46440;DHT22;32138;50.966;6.968;2024-03-08T07:08:11;5.50;94.70
46440;DHT22;32138;50.966;6.968;2024-03-08T07:09:47;5.60;94.70
46440;DHT22;32138;50.966;6.968;2024-03-08T07:11:19;5.80;94.60
46440;DHT22;32138;50.966;6.968;2024-03-08T07:12:51;5.70;94.70
46440;DHT22;32138;50.966;6.968;2024-03-08T07:14:22;5.90;94.40
46440;DHT22;32138;50.966;6.968;2024-03-08T07:15:53;6.10;94.10
46440;DHT22;32138;50.966;6.968;2024-03-08T07:17:24;6.10;94.10
46440;DHT22;32138;50.966;6.968;2024-03-08T07:18:55;6.20;94.00
46440;DHT22;32138;50.966;6.968;2024-03-08T07:20:25;6.20;93.90
46440;DHT22;32138;50.966;6.968;2024-03-08T07:21:56;5.90;94.10
46440;DHT22;32138;50.966;6.968;2024-03-08T07:23:27;5.90;94.30
46440;DHT22;32138;50.966;6.968;2024-03-08T07:25:16;5.80;94.40
46440;DHT22;32138;50.966;6.968;2024-03-08T07:26:59;5.60;95.00
46440;DHT22;32138;50.966;6.968;2024-03-08T07:28:30;5.60;94.80
46440;DHT22;32138;50.966;6.968;2024-03-08T07:30:01;5.60;95.00
46440;DHT22;32138;50.966;6.968;2024-03-08T07:31:32;6.00;94.70
46440;DHT22;32138;50.966;6.968;2024-03-08T07:33:12;6.20;94.30
46440;DHT22;32138;50.966;6.968;2024-03-08T07:34:42;6.30;94.00
46440;DHT22;32138;50.966;6.968;2024-03-08T07:36:13;6.40;93.70
46440;DHT22;32138;50.966;6.968;2024-03-08T07:37:45;6.50;93.60
46440;DHT22;32138;50.966;6.968;2024-03-08T07:39:16;6.40;93.50
46440;DHT22;32138;50.966;6.968;2024-03-08T07:40:47;6.40;93.90
46440;DHT22;32138;50.966;6.968;2024-03-08T07:42:18;6.50;93.70
46440;DHT22;32138;50.966;6.968;2024-03-08T07:43:49;6.60;93.50
46440;DHT22;32138;50.966;6.968;2024-03-08T07:45:19;6.60;93.50
46440;DHT22;32138;50.966;6.968;2024-03-08T07:46:52;6.60;93.60
46440;DHT22;32138;50.966;6.968;2024-03-08T07:48:23;6.70;93.50
46440;DHT22;32138;50.966;6.968;2024-03-08T07:49:53;6.70;93.50
46440;DHT22;32138;50.966;6.968;2024-03-08T07:51:24;6.80;93.40
46440;DHT22;32138;50.966;6.968;2024-03-08T07:52:55;6.80;93.40
46440;DHT22;32138;50.966;6.968;2024-03-08T07:54:26;6.90;93.20
46440;DHT22;32138;50.966;6.968;2024-03-08T07:55:57;7.00;92.90
46440;DHT22;32138;50.966;6.968;2024-03-08T07:57:27;6.70;93.40
46440;DHT22;32138;50.966;6.968;2024-03-08T07:59:00;6.50;93.80
46440;DHT22;32138;50.966;6.968;2024-03-08T08:00:30;6.60;93.90
46440;DHT22;32138;50.966;6.968;2024-03-08T08:02:01;6.90;93.60
46440;DHT22;32138;50.966;6.968;2024-03-08T08:03:32;7.00;93.30
46440;DHT22;32138;50.966;6.968;2024-03-08T08:05:03;7.20;93.00
46440;DHT22;32138;50.966;6.968;2024-03-08T08:06:34;7.00;92.80
46440;DHT22;32138;50.966;6.968;2024-03-08T08:08:10;6.80;93.50
46440;DHT22;32138;50.966;6.968;2024-03-08T08:09:41;7.20;93.30
46440;DHT22;32138;50.966;6.968;2024-03-08T08:11:12;7.30;92.70
46440;DHT22;32138;50.966;6.968;2024-03-08T08:12:45;7.10;93.10
46440;DHT22;32138;50.966;6.968;2024-03-08T08:14:16;7.20;93.10
46440;DHT22;32138;50.966;6.968;2024-03-08T08:15:47;7.00;93.10
46440;DHT22;32138;50.966;6.968;2024-03-08T08:17:18;6.90;93.20
46440;DHT22;32138;50.966;6.968;2024-03-08T08:18:48;6.80;93.50
46440;DHT22;32138;50.966;6.968;2024-03-08T08:20:20;6.90;93.30
46440;DHT22;32138;50.966;6.968;2024-03-08T08:21:52;7.10;93.20
46440;DHT22;32138;50.966;6.968;2024-03-08T08:23:23;7.10;93.20
46440;DHT22;32138;50.966;6.968;2024-03-08T08:24:53;6.90;93.60
46440;DHT22;32138;50.966;6.968;2024-03-08T08:26:24;7.20;93.20
46440;DHT22;32138;50.966;6.968;2024-03-08T08:27:56;7.50;92.90
46440;DHT22;32138;50.966;6.968;2024-03-08T08:29:27;7.40;92.70
46440;DHT22;32138;50.966;6.968;2024-03-08T08:30:58;7.40;92.70
46440;DHT22;32138;50.966;6.968;2024-03-08T08:32:29;7.40;92.90
46440;DHT22;32138;50.966;6.968;2024-03-08T08:34:00;7.60;92.90
46440;DHT22;32138;50.966;6.968;2024-03-08T08:35:33;7.90;92.80
46440;DHT22;32138;50.966;6.968;2024-03-08T08:37:04;8.00;92.40
46440;DHT22;32138;50.966;6.968;2024-03-08T08:38:34;8.10;92.60
46440;DHT22;32138;50.966;6.968;2024-03-08T08:40:06;8.00;92.50
46440;DHT22;32138;50.966;6.968;2024-03-08T08:41:40;7.90;92.40
46440;DHT22;32138;50.966;6.968;2024-03-08T08:43:14;8.10;92.20
46440;DHT22;32138;50.966;6.968;2024-03-08T08:44:44;8.50;92.30
46440;DHT22;32138;50.966;6.968;2024-03-08T08:46:19;8.30;91.10
46440;DHT22;32138;50.966;6.968;2024-03-08T08:47:52;8.10;91.50
46440;DHT22;32138;50.966;6.968;2024-03-08T08:49:23;8.00;91.50
46440;DHT22;32138;50.966;6.968;2024-03-08T08:50:54;8.10;91.10
46440;DHT22;32138;50.966;6.968;2024-03-08T08:52:25;7.90;91.40
46440;DHT22;32138;50.966;6.968;2024-03-08T08:53:56;8.00;91.10
46440;DHT22;32138;50.966;6.968;2024-03-08T08:55:27;7.80;91.50
46440;DHT22;32138;50.966;6.968;2024-03-08T08:56:57;8.10;91.20
46440;DHT22;32138;50.966;6.968;2024-03-08T08:58:28;8.20;91.20
46440;DHT22;32138;50.966;6.968;2024-03-08T08:59:59;8.40;90.80
46440;DHT22;32138;50.966;6.968;2024-03-08T09:01:30;8.40;90.60
46440;DHT22;32138;50.966;6.968;2024-03-08T09:03:01;8.10;91.00
46440;DHT22;32138;50.966;6.968;2024-03-08T09:04:32;8.20;91.70
46440;DHT22;32138;50.966;6.968;2024-03-08T09:06:07;8.80;90.80
46440;DHT22;32138;50.966;6.968;2024-03-08T09:07:40;9.00;90.90
46440;DHT22;32138;50.966;6.968;2024-03-08T09:09:11;9.30;90.00
46440;DHT22;32138;50.966;6.968;2024-03-08T09:10:43;9.50;88.80
46440;DHT22;32138;50.966;6.968;2024-03-08T09:12:14;9.20;88.80
46440;DHT22;32138;50.966;6.968;2024-03-08T09:13:45;9.20;89.50
46440;DHT22;32138;50.966;6.968;2024-03-08T09:15:17;8.80;89.50
46440;DHT22;32138;50.966;6.968;2024-03-08T09:16:48;8.90;89.80
46440;DHT22;32138;50.966;6.968;2024-03-08T09:18:19;9.20;89.10
46440;DHT22;32138;50.966;6.968;2024-03-08T09:19:50;9.40;88.00
46440;DHT22;32138;50.966;6.968;2024-03-08T09:21:21;9.30;89.10
46440;DHT22;32138;50.966;6.968;2024-03-08T09:22:52;9.20;88.50
46440;DHT22;32138;50.966;6.968;2024-03-08T09:24:23;9.50;87.30
46440;DHT22;32138;50.966;6.968;2024-03-08T09:25:54;9.70;86.90
46440;DHT22;32138;50.966;6.968;2024-03-08T09:27:24;9.90;86.70
46440;DHT22;32138;50.966;6.968;2024-03-08T09:28:55;9.70;87.10
46440;DHT22;32138;50.966;6.968;2024-03-08T09:30:26;10.00;85.70
46440;DHT22;32138;50.966;6.968;2024-03-08T09:31:57;10.40;85.50
46440;DHT22;32138;50.966;6.968;2024-03-08T09:33:27;10.80;84.20
46440;DHT22;32138;50.966;6.968;2024-03-08T09:34:59;11.30;83.30
46440;DHT22;32138;50.966;6.968;2024-03-08T09:36:31;10.90;82.20
46440;DHT22;32138;50.966;6.968;2024-03-08T09:38:03;10.70;83.50
46440;DHT22;32138;50.966;6.968;2024-03-08T09:39:35;11.00;83.70
46440;DHT22;32138;50.966;6.968;2024-03-08T09:41:07;10.80;82.70
46440;DHT22;32138;50.966;6.968;2024-03-08T09:42:41;10.70;83.00
46440;DHT22;32138;50.966;6.968;2024-03-08T09:44:12;10.60;82.80
46440;DHT22;32138;50.966;6.968;2024-03-08T09:45:45;10.80;82.60